createdAt,value
2017-12-31T00:00:48.731Z,29.73
2017-12-31T00:03:16.529Z,24.17
2017-12-31T00:05:44.258Z,27.90
2017-12-31T00:08:12.031Z,24.77
2017-12-31T00:10:39.972Z,29.03
2017-12-31T00:13:07.908Z,30.40
2017-12-31T00:15:35.663Z,35.23
2017-12-31T00:18:04.254Z,32.33
2017-12-31T00:20:32.324Z,22.97
2017-12-31T00:23:00.185Z,30.13
2017-12-31T00:25:27.933Z,29.13
2017-12-31T00:27:55.733Z,24.50
2017-12-31T00:30:23.715Z,28.83
2017-12-31T00:32:51.659Z,27.00
2017-12-31T00:35:19.368Z,28.00
2017-12-31T00:37:47.204Z,26.30
2017-12-31T00:40:14.899Z,27.10
2017-12-31T00:42:42.704Z,22.37
2017-12-31T00:45:10.893Z,24.57
2017-12-31T00:47:38.632Z,25.20
2017-12-31T00:50:06.629Z,24.80
2017-12-31T00:52:34.560Z,24.83
2017-12-31T00:55:02.469Z,24.03
2017-12-31T00:57:30.178Z,24.97
2017-12-31T00:59:57.893Z,22.20
2017-12-31T01:02:25.647Z,24.73
2017-12-31T01:04:54.619Z,26.10
2017-12-31T01:07:22.621Z,27.03
2017-12-31T01:09:51.237Z,29.40
2017-12-31T01:12:19.083Z,29.90
2017-12-31T01:14:46.764Z,32.10
2017-12-31T01:17:14.599Z,25.40
2017-12-31T01:19:42.347Z,30.43
2017-12-31T01:22:10.112Z,28.17
2017-12-31T01:24:38.091Z,28.87
2017-12-31T01:27:05.859Z,26.40
2017-12-31T01:29:33.731Z,30.60
2017-12-31T01:32:01.650Z,26.30
2017-12-31T01:34:29.671Z,27.40
2017-12-31T01:36:57.414Z,29.73
2017-12-31T01:39:25.129Z,27.73
2017-12-31T01:41:52.794Z,30.17
2017-12-31T01:44:20.576Z,25.97
2017-12-31T01:46:48.270Z,26.70
2017-12-31T01:49:16.261Z,25.20
2017-12-31T01:51:44.034Z,26.73
2017-12-31T01:54:12.113Z,26.03
2017-12-31T01:56:39.779Z,25.27
2017-12-31T01:59:07.496Z,25.23
2017-12-31T02:01:36.107Z,25.67
2017-12-31T02:04:03.836Z,26.30
2017-12-31T02:06:31.589Z,28.20
2017-12-31T02:08:59.281Z,28.00
2017-12-31T02:11:27.023Z,24.80
2017-12-31T02:13:54.750Z,27.80
2017-12-31T02:16:22.469Z,27.67
2017-12-31T02:18:50.236Z,27.90
2017-12-31T02:21:17.989Z,29.27
2017-12-31T02:23:46.001Z,28.07
2017-12-31T02:26:13.753Z,28.27
2017-12-31T02:28:41.485Z,34.30
2017-12-31T02:31:09.381Z,33.80
2017-12-31T02:33:37.250Z,28.90
2017-12-31T02:36:05.472Z,25.37
2017-12-31T02:38:33.243Z,25.50
2017-12-31T02:41:01.017Z,27.13
2017-12-31T02:43:28.703Z,25.57
2017-12-31T02:45:56.419Z,26.70
2017-12-31T02:48:24.432Z,31.00
2017-12-31T02:50:52.226Z,28.97
2017-12-31T02:53:20.294Z,26.30
2017-12-31T02:55:47.970Z,26.70
2017-12-31T02:58:15.655Z,26.90
2017-12-31T03:00:43.662Z,26.57
2017-12-31T03:03:11.519Z,37.77
2017-12-31T03:05:39.295Z,28.17
2017-12-31T03:08:07.045Z,28.90
2017-12-31T03:10:34.955Z,30.17
2017-12-31T03:13:02.700Z,33.70
2017-12-31T03:15:30.378Z,26.90
2017-12-31T03:17:58.111Z,27.10
2017-12-31T03:20:26.220Z,33.37
2017-12-31T03:22:53.996Z,28.83
2017-12-31T03:25:21.751Z,25.70
2017-12-31T03:27:49.466Z,27.20
2017-12-31T03:30:17.146Z,24.50
2017-12-31T03:32:44.921Z,24.10
2017-12-31T03:35:13.092Z,30.10
2017-12-31T03:37:41.072Z,24.07
2017-12-31T03:40:08.953Z,25.60
2017-12-31T03:42:36.716Z,27.10
2017-12-31T03:45:04.398Z,24.50
2017-12-31T03:47:32.260Z,26.13
2017-12-31T03:50:00.212Z,23.27
2017-12-31T03:52:28.286Z,20.50
2017-12-31T03:54:56.462Z,22.70
2017-12-31T03:57:24.142Z,25.07
2017-12-31T03:59:51.896Z,22.27
2017-12-31T04:02:19.678Z,27.37
2017-12-31T04:04:48.236Z,30.70
2017-12-31T04:07:16.987Z,23.50
2017-12-31T04:09:44.700Z,25.87
2017-12-31T04:12:12.551Z,25.50
2017-12-31T04:14:40.228Z,22.33
2017-12-31T04:17:07.977Z,23.30
2017-12-31T04:19:35.816Z,19.63
2017-12-31T04:22:03.744Z,22.90
2017-12-31T04:24:31.517Z,21.70
2017-12-31T04:26:59.327Z,17.00
2017-12-31T04:29:27.434Z,19.60
2017-12-31T04:31:55.389Z,18.60
2017-12-31T04:34:23.458Z,19.73
2017-12-31T04:36:51.203Z,15.50
2017-12-31T04:39:19.080Z,15.77
2017-12-31T04:41:46.958Z,14.70
2017-12-31T04:44:15.032Z,18.50
2017-12-31T04:46:42.744Z,12.10
2017-12-31T04:49:10.584Z,10.00
2017-12-31T04:51:38.246Z,9.27
2017-12-31T04:54:05.962Z,8.97
2017-12-31T04:56:33.683Z,6.53
2017-12-31T04:59:01.511Z,5.87
2017-12-31T05:01:29.488Z,5.03
2017-12-31T05:03:57.376Z,7.87
2017-12-31T05:06:26.201Z,8.00
2017-12-31T05:08:54.238Z,7.10
2017-12-31T05:11:21.986Z,7.00
2017-12-31T05:13:50.359Z,7.03
2017-12-31T05:16:18.194Z,6.83
2017-12-31T05:18:46.105Z,6.73
2017-12-31T05:21:13.839Z,3.93
2017-12-31T05:23:41.611Z,2.90
2017-12-31T05:26:09.662Z,5.07
2017-12-31T05:28:37.385Z,4.90
2017-12-31T05:31:05.396Z,5.13
2017-12-31T05:33:33.300Z,4.50
2017-12-31T05:36:01.063Z,3.30
2017-12-31T05:38:28.860Z,4.43
2017-12-31T05:40:56.980Z,7.70
2017-12-31T05:43:24.898Z,5.50
2017-12-31T05:45:52.717Z,4.70
2017-12-31T05:48:20.458Z,2.43
2017-12-31T05:50:48.457Z,4.80
2017-12-31T05:53:16.408Z,2.10
2017-12-31T05:55:44.116Z,12.00
2017-12-31T05:58:11.848Z,9.63
2017-12-31T06:00:39.721Z,15.33
2017-12-31T06:03:07.630Z,11.80
2017-12-31T06:05:35.340Z,19.97
2017-12-31T06:08:03.023Z,10.77
2017-12-31T06:10:30.878Z,7.00
2017-12-31T06:12:58.573Z,16.00
2017-12-31T06:15:26.278Z,23.37
2017-12-31T06:17:54.041Z,26.93
2017-12-31T06:20:21.742Z,25.30
2017-12-31T06:22:49.564Z,26.77
2017-12-31T06:25:17.266Z,12.37
2017-12-31T06:27:44.951Z,17.13
2017-12-31T06:30:12.726Z,19.83
2017-12-31T06:32:40.427Z,17.73
2017-12-31T06:35:08.252Z,22.30
2017-12-31T06:37:35.960Z,19.83
2017-12-31T06:40:03.759Z,16.33
2017-12-31T06:42:31.548Z,16.87
2017-12-31T06:44:59.329Z,26.20
2017-12-31T06:47:27.015Z,35.00
2017-12-31T06:49:54.752Z,17.70
2017-12-31T06:52:23.550Z,39.93
2017-12-31T06:54:51.331Z,25.97
2017-12-31T06:57:19.112Z,32.40
2017-12-31T06:59:52.630Z,8.87
2017-12-31T07:02:20.371Z,11.17
2017-12-31T07:04:48.212Z,19.67
2017-12-31T07:07:15.952Z,26.23
2017-12-31T07:09:43.827Z,26.57
2017-12-31T07:12:11.642Z,24.07
2017-12-31T07:14:39.734Z,20.10
2017-12-31T07:17:07.483Z,21.10
2017-12-31T07:19:35.298Z,15.03
2017-12-31T07:22:03.026Z,22.63
2017-12-31T07:24:30.829Z,67.17
2017-12-31T07:26:58.532Z,31.27
2017-12-31T07:29:26.585Z,24.50
2017-12-31T07:31:54.599Z,40.00
2017-12-31T07:34:24.195Z,38.20
2017-12-31T07:36:51.998Z,24.03
2017-12-31T07:39:19.720Z,14.17
2017-12-31T07:41:47.502Z,20.23
2017-12-31T07:44:15.273Z,12.07
2017-12-31T07:46:43.319Z,8.33
2017-12-31T07:49:11.151Z,10.17
2017-12-31T07:51:38.853Z,12.03
2017-12-31T07:54:06.718Z,11.70
2017-12-31T07:56:34.430Z,9.93
2017-12-31T07:59:02.184Z,7.30
2017-12-31T08:01:30.016Z,11.40
2017-12-31T08:03:57.795Z,12.60
2017-12-31T08:06:25.578Z,14.20
2017-12-31T08:08:53.449Z,19.13
2017-12-31T08:11:21.385Z,12.33
2017-12-31T08:13:49.180Z,11.43
2017-12-31T08:16:17.094Z,4.77
2017-12-31T08:18:44.824Z,4.17
2017-12-31T08:21:12.592Z,9.10
2017-12-31T08:23:40.296Z,6.93
2017-12-31T08:26:08.063Z,12.40
2017-12-31T08:28:35.873Z,17.80
2017-12-31T08:31:03.658Z,25.03
2017-12-31T08:33:31.461Z,16.00
2017-12-31T08:35:59.164Z,14.90
2017-12-31T08:38:26.998Z,9.47
2017-12-31T08:40:54.898Z,7.40
2017-12-31T08:43:22.826Z,5.13
2017-12-31T08:45:51.602Z,9.13
2017-12-31T08:48:19.437Z,11.57
2017-12-31T08:50:47.175Z,15.07
2017-12-31T08:53:14.958Z,25.00
2017-12-31T08:55:42.883Z,17.57
2017-12-31T08:58:11.287Z,12.57
2017-12-31T09:00:39.017Z,18.67
2017-12-31T09:03:07.029Z,25.07
2017-12-31T09:05:34.853Z,13.70
2017-12-31T09:08:02.577Z,11.00
2017-12-31T09:10:30.438Z,15.53
2017-12-31T09:12:58.392Z,12.93
2017-12-31T09:15:26.110Z,9.87
2017-12-31T09:17:53.894Z,6.50
2017-12-31T09:20:21.718Z,9.53
2017-12-31T09:22:49.635Z,11.47
2017-12-31T09:25:17.581Z,14.00
2017-12-31T09:27:45.363Z,3.80
2017-12-31T09:30:13.113Z,6.30
2017-12-31T09:32:41.089Z,2.77
2017-12-31T09:35:08.835Z,4.23
2017-12-31T09:37:36.663Z,4.57
2017-12-31T09:40:04.383Z,8.33
2017-12-31T09:42:32.301Z,18.03
2017-12-31T09:45:00.059Z,9.33
2017-12-31T09:47:27.792Z,4.60
2017-12-31T09:49:56.228Z,6.10
2017-12-31T09:52:24.832Z,4.70
2017-12-31T09:54:53.456Z,11.00
2017-12-31T09:57:21.510Z,4.27
2017-12-31T09:59:49.399Z,5.30
2017-12-31T10:02:17.379Z,7.83
2017-12-31T10:04:45.210Z,3.60
2017-12-31T10:07:13.021Z,6.90
2017-12-31T10:09:41.203Z,10.23
2017-12-31T10:12:09.113Z,3.90
2017-12-31T10:14:37.917Z,6.37
2017-12-31T10:17:05.683Z,7.23
2017-12-31T10:19:33.667Z,5.33
2017-12-31T10:22:01.642Z,4.40
2017-12-31T10:24:29.595Z,4.17
2017-12-31T10:26:57.712Z,5.73
2017-12-31T10:29:25.520Z,7.10
2017-12-31T10:31:53.827Z,7.30
2017-12-31T10:34:21.572Z,9.80
2017-12-31T10:36:49.462Z,9.10
2017-12-31T10:39:17.356Z,4.10
2017-12-31T10:41:45.676Z,6.43
2017-12-31T10:44:13.578Z,7.63
2017-12-31T10:46:41.431Z,7.03
2017-12-31T10:49:09.252Z,7.13
2017-12-31T10:51:37.022Z,6.03
2017-12-31T10:54:04.852Z,6.83
2017-12-31T10:56:32.628Z,9.10
2017-12-31T10:59:00.358Z,5.57
2017-12-31T11:01:28.091Z,8.07
2017-12-31T11:03:55.980Z,9.80
2017-12-31T11:06:23.740Z,8.90
2017-12-31T11:08:51.685Z,5.90
2017-12-31T11:11:19.390Z,5.63
2017-12-31T11:13:47.317Z,9.80
2017-12-31T11:16:15.175Z,7.70
2017-12-31T11:18:42.936Z,4.37
2017-12-31T11:21:10.694Z,11.47
2017-12-31T11:23:38.510Z,7.57
2017-12-31T11:26:06.220Z,6.80
2017-12-31T11:28:34.254Z,4.80
2017-12-31T11:31:02.850Z,5.20
2017-12-31T11:33:30.705Z,14.00
2017-12-31T11:35:58.483Z,6.87
2017-12-31T11:38:26.177Z,8.77
2017-12-31T11:40:53.920Z,7.93
2017-12-31T11:43:21.768Z,17.40
2017-12-31T11:45:49.546Z,5.40
2017-12-31T11:48:17.329Z,6.13
2017-12-31T11:50:45.171Z,4.93
2017-12-31T11:53:13.030Z,4.73
2017-12-31T11:55:40.810Z,8.40
2017-12-31T11:58:08.673Z,5.57
2017-12-31T12:00:36.458Z,4.93
2017-12-31T12:03:04.313Z,7.70
2017-12-31T12:05:32.016Z,12.87
2017-12-31T12:07:59.781Z,9.13
2017-12-31T12:10:28.302Z,6.60
2017-12-31T12:12:56.162Z,9.40
2017-12-31T12:15:24.718Z,7.73
2017-12-31T12:17:52.545Z,9.63
2017-12-31T12:20:20.387Z,8.23
2017-12-31T12:22:48.353Z,5.17
2017-12-31T12:25:16.394Z,7.60
2017-12-31T12:27:44.504Z,7.80
2017-12-31T12:30:13.482Z,9.07
2017-12-31T12:32:41.488Z,5.90
2017-12-31T12:35:09.329Z,5.37
2017-12-31T12:37:37.080Z,5.43
2017-12-31T12:40:04.901Z,5.07
2017-12-31T12:42:32.647Z,5.53
2017-12-31T12:45:00.474Z,5.53
2017-12-31T12:47:28.330Z,5.50
2017-12-31T12:49:56.235Z,5.63
2017-12-31T12:52:24.300Z,7.20
2017-12-31T12:54:52.063Z,5.20
2017-12-31T12:57:19.846Z,4.00
2017-12-31T12:59:47.624Z,13.13
2017-12-31T13:02:15.326Z,14.00
2017-12-31T13:04:43.120Z,9.80
2017-12-31T13:07:10.944Z,6.70
2017-12-31T13:09:38.734Z,8.63
2017-12-31T13:12:06.491Z,11.53
2017-12-31T13:14:34.188Z,7.80
2017-12-31T13:17:01.906Z,9.00
2017-12-31T13:19:29.649Z,7.60
2017-12-31T13:21:57.363Z,5.60
2017-12-31T13:24:25.120Z,7.77
2017-12-31T13:26:52.840Z,6.50
2017-12-31T13:29:20.545Z,14.33
2017-12-31T13:31:48.320Z,6.43
2017-12-31T13:34:16.006Z,4.10
2017-12-31T13:36:43.774Z,5.30
2017-12-31T13:39:11.513Z,2.90
2017-12-31T13:41:39.232Z,4.00
2017-12-31T13:44:07.036Z,4.40
2017-12-31T13:46:35.325Z,16.43
2017-12-31T13:49:04.222Z,7.30
2017-12-31T13:51:32.246Z,7.37
2017-12-31T13:54:00.001Z,6.50
2017-12-31T13:56:27.764Z,5.90
2017-12-31T13:58:55.745Z,3.77
2017-12-31T14:01:23.457Z,3.53
2017-12-31T14:03:51.225Z,3.27
2017-12-31T14:06:19.022Z,7.17
2017-12-31T14:08:46.770Z,2.90
2017-12-31T14:11:14.494Z,2.90
2017-12-31T14:13:42.215Z,2.43
2017-12-31T14:16:09.999Z,1.40
2017-12-31T14:18:37.708Z,1.77
2017-12-31T14:21:05.571Z,3.87
2017-12-31T14:23:33.319Z,2.90
2017-12-31T14:26:01.021Z,2.53
2017-12-31T14:28:28.814Z,3.90
2017-12-31T14:30:56.569Z,10.80
2017-12-31T14:33:24.351Z,20.20
2017-12-31T14:35:52.098Z,15.43
2017-12-31T14:38:19.788Z,9.90
2017-12-31T14:40:47.566Z,7.60
2017-12-31T14:43:15.356Z,8.23
2017-12-31T14:45:43.070Z,5.97
2017-12-31T14:48:10.874Z,5.70
2017-12-31T14:50:38.675Z,7.70
2017-12-31T14:53:06.457Z,3.97
2017-12-31T14:55:34.237Z,8.63
2017-12-31T14:58:02.190Z,5.40
2017-12-31T15:00:30.086Z,7.10
2017-12-31T15:02:57.948Z,3.70
2017-12-31T15:05:25.703Z,6.30
2017-12-31T15:07:53.474Z,2.23
2017-12-31T15:10:21.180Z,1.93
2017-12-31T15:12:48.976Z,2.60
2017-12-31T15:15:16.936Z,3.23
2017-12-31T15:17:44.768Z,9.00
2017-12-31T15:20:12.600Z,6.73
2017-12-31T15:22:40.310Z,8.70
2017-12-31T15:25:08.077Z,4.07
2017-12-31T15:27:35.816Z,4.97
2017-12-31T15:30:04.017Z,6.70
2017-12-31T15:32:31.771Z,5.57
2017-12-31T15:35:00.025Z,5.80
2017-12-31T15:37:27.802Z,7.60
2017-12-31T15:39:55.627Z,8.23
2017-12-31T15:42:24.199Z,6.20
2017-12-31T15:44:51.952Z,3.60
2017-12-31T15:47:19.747Z,2.90
2017-12-31T15:49:47.559Z,1.53
2017-12-31T15:52:15.315Z,1.70
2017-12-31T15:54:43.135Z,5.47
2017-12-31T15:57:10.928Z,2.80
2017-12-31T15:59:39.030Z,2.20
2017-12-31T16:02:07.022Z,4.47
2017-12-31T16:04:34.783Z,4.77
2017-12-31T16:07:02.874Z,3.73
2017-12-31T16:09:30.748Z,8.17
2017-12-31T16:11:58.546Z,7.27
2017-12-31T16:14:26.348Z,14.00
2017-12-31T16:16:54.154Z,11.33
2017-12-31T16:19:22.412Z,15.87
2017-12-31T16:21:50.252Z,10.80
2017-12-31T16:24:18.071Z,10.10
2017-12-31T16:26:45.880Z,9.67
2017-12-31T16:29:13.613Z,6.27
2017-12-31T16:31:41.337Z,4.97
2017-12-31T16:34:09.169Z,14.90
2017-12-31T16:36:37.092Z,6.87
2017-12-31T16:39:05.009Z,7.37
2017-12-31T16:41:32.824Z,8.70
2017-12-31T16:44:00.738Z,8.60
2017-12-31T16:46:28.466Z,5.13
2017-12-31T16:48:56.322Z,4.83
2017-12-31T16:51:24.103Z,13.87
2017-12-31T16:53:51.877Z,13.97
2017-12-31T16:56:19.577Z,12.60
2017-12-31T16:58:47.348Z,11.80
2017-12-31T17:01:15.071Z,6.83
2017-12-31T17:03:42.825Z,20.63
2017-12-31T17:06:10.653Z,6.63
2017-12-31T17:08:39.474Z,3.43
2017-12-31T17:11:07.293Z,7.00
2017-12-31T17:13:34.988Z,4.10
2017-12-31T17:16:02.780Z,9.20
2017-12-31T17:18:30.515Z,5.47
2017-12-31T17:20:58.220Z,7.63
2017-12-31T17:23:26.002Z,5.20
2017-12-31T17:25:53.821Z,7.93
2017-12-31T17:28:22.630Z,8.93
2017-12-31T17:30:50.434Z,15.60
2017-12-31T17:33:18.205Z,22.63
2017-12-31T17:35:45.927Z,22.00
2017-12-31T17:38:13.772Z,15.07
2017-12-31T17:40:41.519Z,6.70
2017-12-31T17:43:09.246Z,12.10
2017-12-31T17:45:37.131Z,27.13
2017-12-31T17:48:04.897Z,13.23
2017-12-31T17:50:32.725Z,21.73
2017-12-31T17:53:00.422Z,11.80
2017-12-31T17:55:28.126Z,9.23
2017-12-31T17:57:55.915Z,16.20
2017-12-31T18:00:23.733Z,12.00
2017-12-31T18:02:51.451Z,14.27
2017-12-31T18:05:19.237Z,26.23
2017-12-31T18:07:46.929Z,17.43
2017-12-31T18:10:15.653Z,51.53
2017-12-31T18:12:43.431Z,21.53
2017-12-31T18:15:11.172Z,44.20
2017-12-31T18:17:38.860Z,45.47
2017-12-31T18:20:07.532Z,52.13
2017-12-31T18:22:35.290Z,67.73
2017-12-31T18:25:02.991Z,45.33
2017-12-31T18:27:30.910Z,46.60
2017-12-31T18:29:59.152Z,50.70
2017-12-31T18:32:26.898Z,76.87
2017-12-31T18:34:54.679Z,42.80
2017-12-31T18:37:22.584Z,38.43
2017-12-31T18:39:50.338Z,76.63
2017-12-31T18:42:18.151Z,51.47
2017-12-31T18:44:46.101Z,33.80
2017-12-31T18:47:13.957Z,30.77
2017-12-31T18:49:51.007Z,151.07
2017-12-31T18:52:19.619Z,117.77
2017-12-31T18:54:48.905Z,183.43
2017-12-31T18:57:17.327Z,74.17
2017-12-31T18:59:47.215Z,60.63
2017-12-31T19:02:21.391Z,58.67
2017-12-31T19:04:50.926Z,95.67
2017-12-31T19:07:20.189Z,59.97
2017-12-31T19:09:49.394Z,114.03
2017-12-31T19:12:18.604Z,61.47
2017-12-31T19:14:47.041Z,54.50
2017-12-31T19:17:15.376Z,56.47
2017-12-31T19:19:43.212Z,25.20
2017-12-31T19:22:11.850Z,26.40
2017-12-31T19:24:40.206Z,16.30
2017-12-31T19:27:07.981Z,35.57
2017-12-31T19:29:35.829Z,18.70
2017-12-31T19:32:03.566Z,25.50
2017-12-31T19:34:32.258Z,80.67
2017-12-31T19:37:00.698Z,25.10
2017-12-31T19:39:28.653Z,31.27
2017-12-31T19:41:56.966Z,31.30
2017-12-31T19:44:25.750Z,18.13
2017-12-31T19:46:53.764Z,12.53
2017-12-31T19:49:21.989Z,13.57
2017-12-31T19:51:49.766Z,10.70
2017-12-31T19:54:17.961Z,6.37
2017-12-31T19:56:45.697Z,21.43
2017-12-31T19:59:13.378Z,11.20
2017-12-31T20:01:41.217Z,99.20
2017-12-31T20:04:08.966Z,80.87
2017-12-31T20:06:36.740Z,74.17
2017-12-31T20:09:04.623Z,68.27
2017-12-31T20:11:32.382Z,67.63
2017-12-31T20:14:00.145Z,83.87
2017-12-31T20:16:27.898Z,95.23
2017-12-31T20:18:56.076Z,96.50
2017-12-31T20:21:23.796Z,64.80
2017-12-31T20:23:51.604Z,87.93
2017-12-31T20:26:19.372Z,75.87
2017-12-31T20:28:47.063Z,63.27
2017-12-31T20:31:14.820Z,39.80
2017-12-31T20:33:42.551Z,59.80
2017-12-31T20:36:10.339Z,48.40
2017-12-31T20:38:38.083Z,57.03
2017-12-31T20:41:05.846Z,59.83
2017-12-31T20:43:33.597Z,47.37
2017-12-31T20:46:01.430Z,59.83
2017-12-31T20:48:29.157Z,75.07
2017-12-31T20:50:56.947Z,80.70
2017-12-31T20:53:24.704Z,56.33
2017-12-31T20:55:52.469Z,47.73
2017-12-31T20:58:20.300Z,44.47
2017-12-31T21:00:48.129Z,44.87
2017-12-31T21:03:15.981Z,46.93
2017-12-31T21:05:46.991Z,63.37
2017-12-31T21:08:15.464Z,49.07
2017-12-31T21:10:43.342Z,53.03
2017-12-31T21:13:11.037Z,31.03
2017-12-31T21:15:42.450Z,18.97
2017-12-31T21:18:10.219Z,31.87
2017-12-31T21:20:37.938Z,11.33
2017-12-31T21:23:05.637Z,7.30
2017-12-31T21:25:33.373Z,34.27
2017-12-31T21:28:01.191Z,83.83
2017-12-31T21:30:29.005Z,61.83
2017-12-31T21:32:56.887Z,59.70
2017-12-31T21:35:24.567Z,47.63
2017-12-31T21:37:52.350Z,44.17
2017-12-31T21:40:20.044Z,57.97
2017-12-31T21:42:47.762Z,79.37
2017-12-31T21:45:15.535Z,85.90
2017-12-31T21:47:43.335Z,75.03
2017-12-31T21:50:11.068Z,45.43
2017-12-31T21:52:39.009Z,57.43
2017-12-31T21:55:06.753Z,41.73
2017-12-31T21:57:34.527Z,34.00
2017-12-31T22:00:02.261Z,32.60
2017-12-31T22:02:29.986Z,27.03
2017-12-31T22:04:57.757Z,14.20
2017-12-31T22:07:25.530Z,11.50
2017-12-31T22:09:53.211Z,7.83
2017-12-31T22:12:20.955Z,18.27
2017-12-31T22:14:48.619Z,4.80
2017-12-31T22:17:16.362Z,15.97
2017-12-31T22:19:44.113Z,11.63
2017-12-31T22:22:11.886Z,11.80
2017-12-31T22:24:39.605Z,12.13
2017-12-31T22:27:07.358Z,8.67
2017-12-31T22:29:35.144Z,12.40
2017-12-31T22:32:02.940Z,61.43
2017-12-31T22:34:30.678Z,34.57
2017-12-31T22:36:58.444Z,26.27
2017-12-31T22:39:26.233Z,18.97
2017-12-31T22:42:00.882Z,12.63
2017-12-31T22:44:28.655Z,12.70
2017-12-31T22:46:56.392Z,6.30
2017-12-31T22:49:24.156Z,32.13
2017-12-31T22:51:51.837Z,6.47
2017-12-31T22:54:19.575Z,7.40
2017-12-31T22:56:47.246Z,6.33
2017-12-31T22:59:14.980Z,5.20
2017-12-31T23:01:42.657Z,23.73
2017-12-31T23:04:10.393Z,34.90
2017-12-31T23:06:38.132Z,9.20
2017-12-31T23:09:05.870Z,32.47
2017-12-31T23:11:33.805Z,20.37
2017-12-31T23:14:01.650Z,128.83
2017-12-31T23:16:29.346Z,172.07
2017-12-31T23:18:57.062Z,77.13
2017-12-31T23:21:24.852Z,23.73
2017-12-31T23:23:54.017Z,14.87
2017-12-31T23:26:21.978Z,14.33
2017-12-31T23:28:50.482Z,12.87
2017-12-31T23:31:18.938Z,11.43
2017-12-31T23:33:46.995Z,7.40
2017-12-31T23:36:15.123Z,6.60
2017-12-31T23:38:43.238Z,7.73
2017-12-31T23:41:11.168Z,5.53
2017-12-31T23:43:38.980Z,9.47
2017-12-31T23:46:06.718Z,9.13
2017-12-31T23:48:34.461Z,5.53
2017-12-31T23:51:02.215Z,6.40
2017-12-31T23:53:29.960Z,10.07
2017-12-31T23:55:57.727Z,13.57
2017-12-31T23:58:25.501Z,10.07
